Time;durP1;ratioP1;P1;durP2;ratioP2;P2;SDS_P1;SDS_P2;PMS_P1;PMS_P2;Temp;Humidity;BMP_temperature;BMP_pressure;BME280_temperature;BME280_humidity;BME280_pressure;Samples;Min_cycle;Max_cycle;Signal;HPM_P1;HPM_P2
2022/11/27 09:33:11;;;;;;;3.13;1.20;;;8.10;99.90;;;;;;4706609;27;20598;-74
2022/11/27 09:35:38;;;;;;;2.80;1.43;;;8.10;99.90;;;;;;4867595;29;20294;-76
2022/11/27 09:38:05;;;;;;;3.40;1.63;;;8.10;99.90;;;;;;4879211;29;20714;-72
2022/11/27 09:40:31;;;;;;;3.20;1.20;;;8.10;99.90;;;;;;4879510;29;20211;-74
2022/11/27 09:43:01;;;;;;;3.67;1.53;;;8.00;99.90;;;;;;4879304;29;20218;-73
2022/11/27 09:45:28;;;;;;;5.87;1.63;;;8.00;99.90;;;;;;4879620;29;20242;-73
2022/11/27 09:47:59;;;;;;;2.97;1.47;;;8.00;99.90;;;;;;4879065;29;20233;-73
2022/11/27 09:50:30;;;;;;;4.20;1.60;;;8.00;99.90;;;;;;4879233;29;20219;-73
2022/11/27 09:53:00;;;;;;;3.73;1.63;;;8.00;99.90;;;;;;4879125;29;20221;-73
2022/11/27 09:55:33;;;;;;;4.20;1.23;;;8.10;99.90;;;;;;4879060;29;20574;-74
2022/11/27 09:58:05;;;;;;;7.53;1.70;;;8.00;99.90;;;;;;4879435;29;20234;-75
2022/11/27 10:00:32;;;;;;;2.87;1.40;;;8.00;99.90;;;;;;4879385;29;20305;-73
2022/11/27 10:02:59;;;;;;;4.87;2.20;;;8.10;99.90;;;;;;4878609;29;20211;-73
2022/11/27 10:05:37;;;;;;;3.80;1.90;;;8.20;99.90;;;;;;4878429;29;20230;-73
2022/11/27 10:08:18;;;;;;;4.60;1.73;;;8.20;99.90;;;;;;4879167;29;20231;-73
2022/11/27 10:10:58;;;;;;;5.33;1.70;;;8.20;99.90;;;;;;4879424;29;20217;-73
2022/11/27 10:13:43;;;;;;;4.47;1.90;;;8.20;99.90;;;;;;4879582;29;20215;-73
2022/11/27 10:16:19;;;;;;;4.93;1.83;;;8.20;99.90;;;;;;4878855;29;20211;-73
2022/11/27 10:18:51;;;;;;;4.13;1.87;;;8.30;99.90;;;;;;4880021;29;20231;-72
2022/11/27 10:21:30;;;;;;;3.90;1.67;;;8.30;99.90;;;;;;4882788;29;20218;-73
2022/11/27 10:24:02;;;;;;;3.83;1.50;;;8.30;99.90;;;;;;4883145;29;20237;-72
2022/11/27 10:26:34;;;;;;;2.57;1.43;;;8.40;99.90;;;;;;4883008;29;20239;-72
2022/11/27 10:29:12;;;;;;;10.00;1.93;;;8.20;99.90;;;;;;4882967;29;20231;-73
2022/11/27 10:31:43;;;;;;;3.43;1.67;;;8.20;99.90;;;;;;4882591;29;20210;-74
2022/11/27 10:34:25;;;;;;;3.93;1.90;;;8.30;99.90;;;;;;4882621;29;20217;-73
2022/11/27 10:36:55;;;;;;;5.47;1.70;;;8.40;99.90;;;;;;4882850;29;20315;-74
2022/11/27 10:39:30;;;;;;;6.50;1.80;;;8.40;99.90;;;;;;4882543;29;20235;-73
2022/11/27 10:42:07;;;;;;;3.83;1.70;;;8.50;99.90;;;;;;4882530;29;20566;-73
2022/11/27 10:44:38;;;;;;;3.10;1.50;;;8.50;99.90;;;;;;4882498;29;20207;-73
2022/11/27 10:47:08;;;;;;;5.43;1.73;;;8.50;99.90;;;;;;4882262;29;20247;-73
2022/11/27 10:49:39;;;;;;;4.47;2.10;;;8.60;99.90;;;;;;4882314;29;20241;-73
2022/11/27 10:52:13;;;;;;;3.63;1.70;;;8.80;99.90;;;;;;4882285;29;20207;-73
2022/11/27 10:54:40;;;;;;;3.50;1.83;;;8.80;99.90;;;;;;4882490;29;20215;-73
2022/11/27 10:57:22;;;;;;;6.63;1.97;;;8.90;99.90;;;;;;4882489;29;20222;-73
2022/11/27 11:00:01;;;;;;;3.57;1.80;;;9.10;99.90;;;;;;4882268;29;20211;-73
2022/11/27 11:02:30;;;;;;;3.03;1.70;;;9.10;99.90;;;;;;4882342;29;20286;-74
2022/11/27 11:04:56;;;;;;;4.70;2.00;;;9.20;99.90;;;;;;4881635;29;20668;-73
2022/11/27 11:07:27;;;;;;;4.27;1.77;;;9.20;99.90;;;;;;4881861;29;20673;-73
2022/11/27 11:09:55;;;;;;;6.50;2.07;;;9.20;99.90;;;;;;4882082;29;20215;-73
2022/11/27 11:12:23;;;;;;;2.07;1.50;;;9.10;99.90;;;;;;4882079;29;20223;-73
2022/11/27 11:14:54;;;;;;;6.53;1.80;;;9.30;99.90;;;;;;4881939;29;20221;-76
2022/11/27 11:17:25;;;;;;;5.47;2.00;;;9.20;99.90;;;;;;4881799;29;20695;-73
2022/11/27 11:19:52;;;;;;;4.97;1.83;;;9.20;99.90;;;;;;4881649;29;20228;-73
2022/11/27 11:22:19;;;;;;;4.17;1.70;;;9.20;99.90;;;;;;4881617;29;20215;-73
2022/11/27 11:24:49;;;;;;;3.73;1.90;;;9.10;99.90;;;;;;4881563;29;20211;-72
2022/11/27 11:27:20;;;;;;;3.70;1.43;;;9.30;99.90;;;;;;4880995;29;20287;-73
2022/11/27 11:29:49;;;;;;;4.67;1.50;;;9.30;99.90;;;;;;4880805;29;20211;-72
2022/11/27 11:32:23;;;;;;;3.37;1.17;;;9.40;99.90;;;;;;4881009;29;20219;-73
2022/11/27 11:34:52;;;;;;;3.13;1.50;;;9.50;99.90;;;;;;4881295;29;20211;-73
2022/11/27 11:37:23;;;;;;;3.73;1.57;;;9.70;99.90;;;;;;4881351;29;20262;-73
2022/11/27 11:39:57;;;;;;;4.43;1.70;;;9.70;99.90;;;;;;4881057;29;20207;-73
2022/11/27 11:42:26;;;;;;;6.17;1.80;;;9.60;99.90;;;;;;4881543;29;20221;-73
2022/11/27 11:44:55;;;;;;;6.37;1.60;;;9.70;99.90;;;;;;4881471;29;20298;-74
2022/11/27 11:47:23;;;;;;;3.63;1.50;;;9.90;99.90;;;;;;4881078;29;20235;-73
2022/11/27 11:49:51;;;;;;;5.43;1.50;;;9.90;99.90;;;;;;4880744;29;20703;-74
2022/11/27 11:52:35;;;;;;;5.00;1.70;;;9.90;99.90;;;;;;4880797;29;20211;-73
2022/11/27 11:55:14;;;;;;;3.27;1.50;;;10.00;99.90;;;;;;4880456;29;20221;-75
2022/11/27 11:58:09;;;;;;;2.67;1.60;;;10.00;99.90;;;;;;4880163;29;20230;-75
2022/11/27 12:00:43;;;;;;;4.03;1.60;;;10.10;99.90;;;;;;4878658;29;20226;-75
2022/11/27 12:03:27;;;;;;;3.83;1.80;;;9.90;99.90;;;;;;4879900;29;20670;-74
2022/11/27 12:06:16;;;;;;;2.90;1.63;;;9.90;99.90;;;;;;4880869;29;20326;-74
2022/11/27 12:08:54;;;;;;;3.37;1.73;;;9.90;99.90;;;;;;4880271;29;20231;-77
2022/11/27 12:11:29;;;;;;;5.07;1.77;;;9.90;99.90;;;;;;4880764;29;20306;-73
2022/11/27 12:14:13;;;;;;;4.07;1.63;;;9.90;99.90;;;;;;4887853;29;20202;-73
2022/11/27 12:16:51;;;;;;;5.60;1.60;;;9.90;99.90;;;;;;4889666;29;20202;-73
2022/11/27 12:19:46;;;;;;;5.40;1.50;;;9.90;99.90;;;;;;4889838;29;20340;-73
2022/11/27 12:22:20;;;;;;;4.07;2.03;;;9.70;99.90;;;;;;4883891;29;20246;-74
2022/11/27 12:24:56;;;;;;;3.53;1.60;;;9.70;99.90;;;;;;4877478;29;20297;-74
2022/11/27 12:27:44;;;;;;;6.00;2.10;;;9.80;99.90;;;;;;4879433;29;20234;-73
2022/11/27 12:30:16;;;;;;;5.90;1.77;;;9.70;99.90;;;;;;4877852;29;20209;-74
2022/11/27 12:33:09;;;;;;;4.10;1.73;;;9.50;99.90;;;;;;4876439;29;20303;-73
2022/11/27 12:35:42;;;;;;;2.67;1.20;;;9.50;99.90;;;;;;4889389;29;20213;-74
2022/11/27 12:38:30;;;;;;;3.50;1.40;;;9.50;99.90;;;;;;4879236;29;20230;-74
2022/11/27 12:41:13;;;;;;;3.70;1.63;;;9.50;99.90;;;;;;4888225;29;20559;-74
2022/11/27 12:43:45;;;;;;;4.30;1.70;;;9.70;99.90;;;;;;4885339;29;20209;-74
2022/11/27 12:46:16;;;;;;;3.90;1.70;;;9.60;99.90;;;;;;4888328;29;20230;-74
2022/11/27 12:48:50;;;;;;;5.47;2.33;;;9.60;99.90;;;;;;4888806;29;20250;-75
2022/11/27 12:51:22;;;;;;;4.83;2.00;;;9.40;99.90;;;;;;4887549;29;20210;-73
2022/11/27 12:53:52;;;;;;;5.17;2.10;;;9.40;99.90;;;;;;4887659;29;20229;-73
2022/11/27 12:56:24;;;;;;;3.53;1.90;;;9.50;99.90;;;;;;4888143;29;20203;-73
2022/11/27 12:58:57;;;;;;;5.00;2.03;;;9.40;99.90;;;;;;4885219;29;20724;-73
2022/11/27 13:01:28;;;;;;;4.33;2.03;;;9.40;99.90;;;;;;4887656;29;20214;-73
2022/11/27 13:04:06;;;;;;;3.60;1.83;;;9.50;99.90;;;;;;4886456;29;21318;-74
2022/11/27 13:06:40;;;;;;;5.43;1.70;;;9.60;99.90;;;;;;4889741;29;20237;-75
2022/11/27 13:09:12;;;;;;;6.50;2.60;;;9.40;99.90;;;;;;4896722;29;20241;-73
2022/11/27 13:11:41;;;;;;;4.60;1.93;;;9.40;99.90;;;;;;4897369;29;20218;-73
2022/11/27 13:14:14;;;;;;;4.10;2.10;;;9.50;99.90;;;;;;4897803;29;20210;-75
2022/11/27 13:16:45;;;;;;;4.03;1.90;;;9.50;99.90;;;;;;4896926;29;20317;-75
2022/11/27 13:19:19;;;;;;;4.87;2.10;;;9.50;99.90;;;;;;4896641;29;20258;-73
2022/11/27 13:21:47;;;;;;;5.47;2.10;;;9.60;99.90;;;;;;4898055;29;20224;-73
2022/11/27 13:24:14;;;;;;;4.40;2.30;;;9.50;99.90;;;;;;4898274;29;20673;-72
2022/11/27 13:26:48;;;;;;;9.10;2.53;;;9.60;99.90;;;;;;4898357;29;20238;-72
2022/11/27 13:29:23;;;;;;;5.73;2.23;;;9.70;99.90;;;;;;4898283;29;20597;-73
2022/11/27 13:31:54;;;;;;;6.93;2.43;;;9.70;99.90;;;;;;4897588;29;20702;-73
2022/11/27 13:34:24;;;;;;;4.07;1.73;;;9.50;99.90;;;;;;4897543;29;20210;-73
2022/11/27 13:36:57;;;;;;;4.03;2.10;;;9.60;99.90;;;;;;4898225;29;20217;-73
2022/11/27 13:39:28;;;;;;;6.93;2.27;;;9.40;99.90;;;;;;4897983;29;20269;-73
2022/11/27 13:42:07;;;;;;;3.90;2.00;;;9.40;99.90;;;;;;4898015;29;20210;-72
2022/11/27 13:44:39;;;;;;;6.43;2.63;;;9.40;99.90;;;;;;4898034;29;20206;-73
2022/11/27 13:47:10;;;;;;;4.70;2.37;;;9.40;99.90;;;;;;4897673;29;20238;-74
2022/11/27 13:49:37;;;;;;;4.53;2.03;;;9.60;99.90;;;;;;4898061;29;20245;-74
2022/11/27 13:52:07;;;;;;;9.53;3.37;;;9.40;99.90;;;;;;4897667;29;20670;-73
2022/11/27 13:54:34;;;;;;;6.07;2.37;;;9.50;99.90;;;;;;4898048;29;20261;-73
2022/11/27 13:57:14;;;;;;;4.93;2.20;;;9.50;99.90;;;;;;4898012;29;20217;-73
2022/11/27 13:59:55;;;;;;;3.40;2.00;;;9.60;99.90;;;;;;4897442;29;20669;-74
2022/11/27 14:02:22;;;;;;;3.50;2.00;;;9.70;99.90;;;;;;4897402;29;20668;-73
2022/11/27 14:04:50;;;;;;;4.47;2.10;;;9.70;99.90;;;;;;4897826;29;20218;-74
2022/11/27 14:07:18;;;;;;;4.73;2.00;;;9.70;99.90;;;;;;4897682;29;20246;-73
2022/11/27 14:09:47;;;;;;;5.60;1.93;;;9.80;99.90;;;;;;4897737;29;20654;-74
2022/11/27 14:12:19;;;;;;;7.10;3.50;;;9.80;99.90;;;;;;4897955;29;20218;-74
2022/11/27 14:15:01;;;;;;;4.83;1.90;;;9.90;99.90;;;;;;4897845;29;20213;-73
2022/11/27 14:17:35;;;;;;;4.77;2.00;;;9.80;99.90;;;;;;4897540;29;20645;-74
2022/11/27 14:20:06;;;;;;;2.90;1.63;;;9.90;99.90;;;;;;4897417;29;20684;-74
2022/11/27 14:22:43;;;;;;;3.10;1.60;;;9.80;99.90;;;;;;4897194;29;20217;-73
2022/11/27 14:25:18;;;;;;;4.13;1.97;;;9.70;99.90;;;;;;4897654;29;20677;-75
2022/11/27 14:27:45;;;;;;;3.70;1.63;;;9.60;99.90;;;;;;4897765;29;20272;-74
2022/11/27 14:30:25;;;;;;;2.77;1.50;;;9.50;99.90;;;;;;4897414;29;20214;-74
2022/11/27 14:32:51;;;;;;;4.63;1.90;;;9.50;99.90;;;;;;4897220;29;20222;-74
2022/11/27 14:35:22;;;;;;;3.73;1.67;;;9.40;99.90;;;;;;4897375;29;20217;-74
2022/11/27 14:37:49;;;;;;;2.87;1.90;;;9.40;99.90;;;;;;4896238;29;20237;-74
2022/11/27 14:40:21;;;;;;;3.70;2.17;;;9.40;99.90;;;;;;4895916;29;20210;-73
2022/11/27 14:42:48;;;;;;;4.63;1.90;;;9.40;99.90;;;;;;4896132;29;20210;-73
2022/11/27 14:45:18;;;;;;;4.93;2.03;;;9.40;99.90;;;;;;4897215;29;20207;-74
2022/11/27 14:47:48;;;;;;;5.87;2.23;;;9.40;99.90;;;;;;4897281;29;20253;-73
2022/11/27 14:50:16;;;;;;;8.83;3.10;;;9.40;99.90;;;;;;4897338;29;20574;-74
2022/11/27 14:52:44;;;;;;;5.10;2.03;;;9.40;99.90;;;;;;4897565;29;20211;-74
2022/11/27 14:55:15;;;;;;;9.13;3.40;;;9.40;99.90;;;;;;4897817;29;20210;-73
2022/11/27 14:57:42;;;;;;;4.63;1.97;;;9.30;99.90;;;;;;4898211;29;20283;-74
2022/11/27 15:00:19;;;;;;;4.23;1.60;;;9.30;99.90;;;;;;4898364;29;20210;-73
2022/11/27 15:02:48;;;;;;;5.13;1.83;;;9.30;99.90;;;;;;4898214;29;20210;-73
2022/11/27 15:05:20;;;;;;;3.43;1.80;;;9.40;99.90;;;;;;4899233;29;20211;-74
2022/11/27 15:07:49;;;;;;;3.43;2.07;;;9.40;99.90;;;;;;4900708;29;20326;-73
2022/11/27 15:10:23;;;;;;;5.17;2.00;;;9.50;99.90;;;;;;4900798;29;20218;-74
2022/11/27 15:12:50;;;;;;;3.80;2.17;;;9.50;99.90;;;;;;4901014;29;20369;-73
2022/11/27 15:15:22;;;;;;;5.07;2.30;;;9.60;99.90;;;;;;4900856;29;20236;-73
2022/11/27 15:17:51;;;;;;;5.40;1.73;;;9.50;99.90;;;;;;4899918;29;20728;-74
2022/11/27 15:20:24;;;;;;;4.97;2.73;;;9.50;99.90;;;;;;4899730;29;20305;-74
2022/11/27 15:22:52;;;;;;;6.47;2.27;;;9.50;99.90;;;;;;4900724;29;20218;-73
2022/11/27 15:25:36;;;;;;;6.60;2.60;;;9.50;99.90;;;;;;4900358;29;20229;-73
2022/11/27 15:28:03;;;;;;;6.47;1.40;;;9.60;99.90;;;;;;4900666;29;20242;-73
2022/11/27 15:30:31;;;;;;;5.77;2.33;;;9.50;99.90;;;;;;4900499;29;20221;-73
2022/11/27 15:32:59;;;;;;;4.33;2.23;;;9.50;99.90;;;;;;4900156;29;20214;-73
2022/11/27 15:35:28;;;;;;;5.53;2.30;;;9.50;99.90;;;;;;4900184;29;20216;-73
2022/11/27 15:37:56;;;;;;;3.37;1.83;;;9.50;99.90;;;;;;4900039;29;20234;-73
2022/11/27 15:40:37;;;;;;;4.27;1.87;;;9.50;99.90;;;;;;4900023;29;20214;-73
2022/11/27 15:43:10;;;;;;;7.83;1.80;;;9.50;99.90;;;;;;4899580;29;20214;-73
2022/11/27 15:45:38;;;;;;;6.03;2.17;;;9.40;99.90;;;;;;4900026;29;20210;-74
2022/11/27 15:48:12;;;;;;;4.13;2.20;;;9.30;99.90;;;;;;4900206;29;20321;-74
2022/11/27 15:50:39;;;;;;;4.33;2.20;;;9.20;99.90;;;;;;4899967;29;20210;-74
2022/11/27 15:53:06;;;;;;;3.07;1.80;;;9.20;99.90;;;;;;4900256;29;20563;-74
2022/11/27 15:55:33;;;;;;;4.50;2.10;;;9.20;99.90;;;;;;4899777;29;20210;-74
2022/11/27 15:58:00;;;;;;;3.53;1.67;;;9.10;99.90;;;;;;4899547;29;20555;-75
2022/11/27 16:00:26;;;;;;;4.90;2.07;;;9.10;99.90;;;;;;4899992;29;20222;-74
2022/11/27 16:02:55;;;;;;;4.07;2.03;;;9.10;99.90;;;;;;4899926;29;20224;-74
2022/11/27 16:05:21;;;;;;;3.80;1.80;;;9.20;99.90;;;;;;4899936;29;20210;-73
2022/11/27 16:07:48;;;;;;;6.17;2.33;;;9.40;99.90;;;;;;4899533;29;20245;-74
2022/11/27 16:10:15;;;;;;;4.80;2.10;;;9.50;99.90;;;;;;4899845;29;20211;-73
2022/11/27 16:12:42;;;;;;;3.67;2.27;;;9.40;99.90;;;;;;4899718;29;20580;-74
2022/11/27 16:15:10;;;;;;;3.57;1.83;;;9.30;99.90;;;;;;4899443;29;20214;-74
2022/11/27 16:17:37;;;;;;;4.70;2.17;;;9.30;99.90;;;;;;4899522;29;20240;-74
2022/11/27 16:20:07;;;;;;;3.63;1.77;;;9.30;99.90;;;;;;4899429;29;20301;-74
2022/11/27 16:22:34;;;;;;;6.70;2.10;;;9.30;99.90;;;;;;4899237;29;20226;-73
2022/11/27 16:25:00;;;;;;;6.90;2.07;;;9.30;99.90;;;;;;4899445;29;20222;-74
2022/11/27 16:27:27;;;;;;;3.83;1.67;;;9.20;99.90;;;;;;4899450;29;20345;-78
2022/11/27 16:29:54;;;;;;;6.17;2.10;;;9.10;99.90;;;;;;4898935;29;20210;-74
2022/11/27 16:32:21;;;;;;;4.03;1.93;;;9.20;99.90;;;;;;4898389;29;20322;-74
2022/11/27 16:34:50;;;;;;;5.90;2.03;;;9.20;99.90;;;;;;4899213;29;20232;-74
2022/11/27 16:37:18;;;;;;;4.83;2.03;;;9.30;99.90;;;;;;4899099;29;20224;-74
2022/11/27 16:39:45;;;;;;;5.67;2.37;;;9.20;99.90;;;;;;4898853;29;20221;-73
2022/11/27 16:42:11;;;;;;;4.93;2.10;;;9.20;99.90;;;;;;4899139;29;20210;-74
2022/11/27 16:44:38;;;;;;;4.00;2.20;;;9.10;99.90;;;;;;4898560;29;20260;-73
2022/11/27 16:47:05;;;;;;;4.23;2.00;;;9.00;99.90;;;;;;4899039;29;20244;-74
2022/11/27 16:49:32;;;;;;;6.17;2.57;;;9.10;99.90;;;;;;4898853;29;20245;-73
2022/11/27 16:51:59;;;;;;;4.37;1.83;;;9.10;99.90;;;;;;4898899;29;20557;-74
2022/11/27 16:54:27;;;;;;;4.77;2.00;;;9.10;99.90;;;;;;4898740;29;20285;-74
2022/11/27 16:56:54;;;;;;;6.13;2.10;;;9.10;99.90;;;;;;4898786;29;20210;-74
2022/11/27 16:59:20;;;;;;;5.33;2.20;;;9.00;99.90;;;;;;4898768;29;20237;-73
2022/11/27 17:01:47;;;;;;;4.13;2.20;;;9.10;99.90;;;;;;4898531;29;20211;-73
2022/11/27 17:04:17;;;;;;;4.47;2.20;;;9.10;99.90;;;;;;4898760;29;20217;-74
2022/11/27 17:06:44;;;;;;;3.40;2.07;;;9.10;99.90;;;;;;4898455;29;20225;-74
2022/11/27 17:09:11;;;;;;;4.33;1.90;;;9.00;99.90;;;;;;4898609;29;20238;-72
2022/11/27 17:11:44;;;;;;;4.60;2.10;;;9.10;99.90;;;;;;4898549;29;20222;-73
2022/11/27 17:14:11;;;;;;;3.20;1.70;;;9.00;99.90;;;;;;4898827;29;20228;-73
2022/11/27 17:16:40;;;;;;;3.83;2.00;;;8.90;99.90;;;;;;4898622;29;20300;-73
2022/11/27 17:19:07;;;;;;;5.03;2.10;;;9.00;99.90;;;;;;4898294;29;20259;-74
2022/11/27 17:21:35;;;;;;;3.37;1.73;;;9.00;99.90;;;;;;4898391;29;20573;-74
2022/11/27 17:24:03;;;;;;;7.57;2.63;;;8.90;99.90;;;;;;4898570;29;20218;-75
2022/11/27 17:26:31;;;;;;;3.40;1.90;;;8.90;99.90;;;;;;4898509;29;20297;-73
2022/11/27 17:29:01;;;;;;;6.07;2.17;;;8.80;99.90;;;;;;4897910;29;20248;-74
2022/11/27 17:31:31;;;;;;;5.00;2.20;;;8.90;99.90;;;;;;4898241;29;20225;-73
2022/11/27 17:33:58;;;;;;;5.60;2.00;;;8.90;99.90;;;;;;4897869;29;20214;-73
2022/11/27 17:36:26;;;;;;;3.13;2.00;;;8.80;99.90;;;;;;4898295;29;20297;-77
2022/11/27 17:38:53;;;;;;;4.37;1.80;;;8.80;99.90;;;;;;4897979;29;20233;-74
2022/11/27 17:41:20;;;;;;;4.33;1.97;;;8.70;99.90;;;;;;4897873;29;20693;-74
2022/11/27 17:43:48;;;;;;;5.77;1.90;;;8.80;99.90;;;;;;4897970;29;20210;-72
2022/11/27 17:46:18;;;;;;;4.40;2.60;;;8.70;99.90;;;;;;4898037;29;20305;-75
2022/11/27 17:48:45;;;;;;;5.23;2.40;;;8.70;99.90;;;;;;4897709;29;20244;-74
2022/11/27 17:51:12;;;;;;;2.73;2.10;;;8.70;99.90;;;;;;4898339;29;20562;-73
2022/11/27 17:53:39;;;;;;;4.53;2.53;;;8.70;99.90;;;;;;4898075;29;20217;-76
2022/11/27 17:56:08;;;;;;;4.67;2.23;;;8.60;99.90;;;;;;4897488;29;20670;-73
2022/11/27 17:58:36;;;;;;;4.47;2.03;;;8.60;99.90;;;;;;4897463;29;20230;-73
2022/11/27 18:01:03;;;;;;;3.27;2.07;;;8.60;99.90;;;;;;4897530;29;20278;-73
2022/11/27 18:03:32;;;;;;;5.67;2.43;;;8.70;99.90;;;;;;4897649;29;20210;-73
2022/11/27 18:06:03;;;;;;;4.00;2.23;;;8.70;99.90;;;;;;4897979;29;20658;-74
2022/11/27 18:08:30;;;;;;;4.63;1.93;;;8.60;99.90;;;;;;4897560;29;20285;-75
2022/11/27 18:10:57;;;;;;;5.77;2.23;;;8.50;99.90;;;;;;4897601;29;20697;-73
2022/11/27 18:13:25;;;;;;;5.40;2.20;;;8.50;99.90;;;;;;4897269;29;20304;-73
2022/11/27 18:15:52;;;;;;;3.60;2.27;;;8.50;99.90;;;;;;4897570;29;20662;-73
2022/11/27 18:18:18;;;;;;;3.53;2.17;;;8.50;99.90;;;;;;4897479;29;20701;-73
2022/11/27 18:20:47;;;;;;;3.77;2.03;;;8.50;99.90;;;;;;4897490;29;20301;-73
2022/11/27 18:23:14;;;;;;;4.87;2.17;;;8.50;99.90;;;;;;4897407;29;20594;-73
2022/11/27 18:25:42;;;;;;;5.87;2.40;;;8.40;99.90;;;;;;4897642;29;20214;-76
2022/11/27 18:28:08;;;;;;;5.30;2.93;;;8.30;99.90;;;;;;4897309;29;20329;-74
2022/11/27 18:30:35;;;;;;;5.30;2.30;;;8.40;99.90;;;;;;4897590;29;20206;-73
2022/11/27 18:33:03;;;;;;;5.37;2.53;;;8.30;99.90;;;;;;4897388;29;20630;-73
2022/11/27 18:35:30;;;;;;;4.07;2.00;;;8.30;99.90;;;;;;4897434;29;20270;-74
2022/11/27 18:37:58;;;;;;;4.13;2.23;;;8.40;99.90;;;;;;4897354;29;20256;-73
2022/11/27 18:40:25;;;;;;;3.30;2.30;;;8.40;99.90;;;;;;4899698;29;20210;-73
2022/11/27 18:42:52;;;;;;;6.17;2.20;;;8.40;99.90;;;;;;4901189;29;20580;-74
2022/11/27 18:45:19;;;;;;;6.77;2.20;;;8.40;99.90;;;;;;4901363;29;20301;-74
2022/11/27 18:47:45;;;;;;;3.27;2.43;;;8.40;99.90;;;;;;4900902;29;20248;-75
2022/11/27 18:50:12;;;;;;;5.63;2.37;;;8.30;99.90;;;;;;4901247;29;20220;-73
2022/11/27 18:52:39;;;;;;;4.90;2.03;;;8.30;99.90;;;;;;4901149;29;20209;-73
2022/11/27 18:55:08;;;;;;;6.17;2.17;;;8.30;99.90;;;;;;4900768;29;20211;-74
2022/11/27 18:57:35;;;;;;;3.33;1.90;;;8.20;99.90;;;;;;4900957;29;20246;-75
2022/11/27 19:00:02;;;;;;;6.50;2.07;;;8.30;99.90;;;;;;4900925;29;20710;-74
2022/11/27 19:02:28;;;;;;;5.17;1.97;;;8.30;99.90;;;;;;4900946;29;20210;-73
2022/11/27 19:04:55;;;;;;;7.50;1.87;;;8.20;99.90;;;;;;4900800;29;20210;-74
2022/11/27 19:07:23;;;;;;;3.90;1.70;;;8.20;99.90;;;;;;4900726;29;20214;-75
2022/11/27 19:09:50;;;;;;;3.63;1.87;;;8.20;99.90;;;;;;4900555;29;20206;-76
2022/11/27 19:12:18;;;;;;;4.97;2.20;;;8.20;99.90;;;;;;4900779;29;20327;-74
2022/11/27 19:14:45;;;;;;;4.37;2.73;;;8.10;99.90;;;;;;4900798;29;20217;-74
2022/11/27 19:17:12;;;;;;;3.67;2.20;;;8.10;99.90;;;;;;4900386;29;20305;-74
2022/11/27 19:19:39;;;;;;;3.13;1.73;;;8.10;99.90;;;;;;4900385;29;20261;-74
2022/11/27 19:22:07;;;;;;;6.90;1.80;;;8.10;99.90;;;;;;4900413;29;20210;-74
2022/11/27 19:24:33;;;;;;;6.80;2.10;;;8.20;99.90;;;;;;4900428;29;20229;-76
2022/11/27 19:27:00;;;;;;;4.97;2.07;;;8.20;99.90;;;;;;4900769;29;20278;-75
2022/11/27 19:29:28;;;;;;;4.37;2.07;;;8.20;99.90;;;;;;4900719;29;20249;-73
2022/11/27 19:31:57;;;;;;;3.00;1.83;;;8.20;99.90;;;;;;4900230;29;20240;-73
2022/11/27 19:34:24;;;;;;;3.27;1.90;;;8.20;99.90;;;;;;4900290;29;20214;-74
2022/11/27 19:36:51;;;;;;;6.53;2.00;;;8.20;99.90;;;;;;4900179;29;20297;-73
2022/11/27 19:39:18;;;;;;;4.30;1.80;;;8.20;99.90;;;;;;4900378;29;20601;-74
2022/11/27 19:41:45;;;;;;;5.77;1.87;;;8.20;99.90;;;;;;4900142;29;20217;-74
2022/11/27 19:44:13;;;;;;;3.77;1.80;;;8.20;99.90;;;;;;4899985;29;20217;-74
2022/11/27 19:46:43;;;;;;;3.03;1.90;;;8.30;99.90;;;;;;4899774;29;20242;-72
2022/11/27 19:49:15;;;;;;;2.80;1.77;;;8.30;99.90;;;;;;4899786;29;20242;-74
2022/11/27 19:51:42;;;;;;;2.97;1.93;;;8.40;99.90;;;;;;4899225;29;20704;-76
2022/11/27 19:54:17;;;;;;;4.67;1.70;;;8.40;99.90;;;;;;4899913;29;20228;-73
2022/11/27 19:56:45;;;;;;;2.87;1.77;;;8.40;99.90;;;;;;4899985;29;20257;-74
2022/11/27 19:59:12;;;;;;;3.93;1.60;;;8.50;99.90;;;;;;4899200;29;20238;-74
2022/11/27 20:01:41;;;;;;;3.80;1.87;;;8.50;99.90;;;;;;4899599;29;20214;-73
2022/11/27 20:04:10;;;;;;;2.73;1.60;;;8.50;99.90;;;;;;4899654;29;20678;-73
2022/11/27 20:06:37;;;;;;;5.37;1.50;;;8.60;99.90;;;;;;4900084;29;20299;-74
2022/11/27 20:09:05;;;;;;;6.77;2.37;;;8.60;99.90;;;;;;4899681;29;20263;-74
2022/11/27 20:11:34;;;;;;;4.73;1.70;;;8.60;99.90;;;;;;4899698;29;20217;-74
2022/11/27 20:14:01;;;;;;;2.03;1.40;;;8.60;99.90;;;;;;4899698;29;20229;-74
2022/11/27 20:16:28;;;;;;;3.20;1.80;;;8.60;99.90;;;;;;4899738;29;20210;-74
2022/11/27 20:18:56;;;;;;;4.10;2.30;;;8.70;99.90;;;;;;4899914;29;20236;-74
2022/11/27 20:21:25;;;;;;;4.40;2.00;;;8.80;99.90;;;;;;4899553;29;20215;-74
2022/11/27 20:23:53;;;;;;;2.77;1.50;;;8.80;99.90;;;;;;4899581;29;20215;-74
2022/11/27 20:26:21;;;;;;;1.80;1.27;;;8.80;99.90;;;;;;4899701;29;20650;-74
2022/11/27 20:28:49;;;;;;;2.13;1.53;;;8.80;99.90;;;;;;4899277;29;20334;-74
2022/11/27 20:31:18;;;;;;;3.07;1.60;;;8.80;99.90;;;;;;4899258;29;20214;-74
2022/11/27 20:33:45;;;;;;;32.57;9.77;;;8.90;99.90;;;;;;4899192;29;20250;-74
2022/11/27 20:36:15;;;;;;;8.70;2.93;;;9.00;99.90;;;;;;4899191;29;20266;-74
2022/11/27 20:38:42;;;;;;;13.33;3.50;;;9.00;99.90;;;;;;4899306;29;20230;-75
2022/11/27 20:41:11;;;;;;;6.30;2.90;;;9.10;99.90;;;;;;4899194;29;20206;-74
2022/11/27 20:43:38;;;;;;;10.33;3.23;;;9.10;99.90;;;;;;4898903;29;20217;-75
2022/11/27 20:46:06;;;;;;;5.07;2.23;;;9.10;99.90;;;;;;4898615;29;20210;-75
2022/11/27 20:48:33;;;;;;;8.10;2.80;;;9.10;99.90;;;;;;4898725;29;20238;-74
2022/11/27 20:51:06;;;;;;;10.10;3.63;;;9.10;99.90;;;;;;4898697;29;20212;-74
2022/11/27 20:53:34;;;;;;;5.00;1.67;;;9.20;99.90;;;;;;4897937;29;20224;-74
2022/11/27 20:56:05;;;;;;;22.73;8.57;;;9.20;99.90;;;;;;4898477;29;20211;-73
2022/11/27 20:58:33;;;;;;;9.93;4.37;;;9.20;99.90;;;;;;4898329;29;20230;-73
2022/11/27 21:01:00;;;;;;;7.83;2.83;;;9.30;99.90;;;;;;4898773;29;20220;-74
2022/11/27 21:03:27;;;;;;;4.00;2.00;;;9.30;99.90;;;;;;4897825;29;20680;-74
2022/11/27 21:05:54;;;;;;;6.40;2.47;;;9.30;99.90;;;;;;4898556;29;20748;-74
2022/11/27 21:08:22;;;;;;;2.67;1.63;;;9.30;99.90;;;;;;4898243;29;20274;-76
2022/11/27 21:10:50;;;;;;;2.43;1.13;;;9.20;99.90;;;;;;4898286;29;20217;-74
2022/11/27 21:13:17;;;;;;;5.90;2.10;;;9.30;99.90;;;;;;4898571;29;20622;-74
2022/11/27 21:15:47;;;;;;;3.27;1.53;;;9.30;99.90;;;;;;4898664;29;20213;-73
2022/11/27 21:18:15;;;;;;;4.97;2.63;;;9.30;99.90;;;;;;4898137;29;20665;-74
2022/11/27 21:20:42;;;;;;;5.93;2.73;;;9.30;99.90;;;;;;4898941;29;20316;-75
2022/11/27 21:23:09;;;;;;;7.33;1.80;;;9.30;99.90;;;;;;4898491;29;20309;-74
2022/11/27 21:25:37;;;;;;;5.73;2.37;;;9.30;99.90;;;;;;4898401;29;20211;-74
2022/11/27 21:28:05;;;;;;;3.93;1.70;;;9.20;99.90;;;;;;4899008;29;20257;-74
2022/11/27 21:30:32;;;;;;;6.00;1.50;;;9.20;99.90;;;;;;4897884;29;20635;-74
2022/11/27 21:32:59;;;;;;;6.33;1.70;;;9.20;99.90;;;;;;4897867;29;20582;-75
2022/11/27 21:35:26;;;;;;;4.53;1.87;;;9.30;99.90;;;;;;4898072;29;20214;-73
2022/11/27 21:37:53;;;;;;;3.43;1.43;;;9.30;99.90;;;;;;4897892;29;20253;-74
2022/11/27 21:40:20;;;;;;;2.10;1.33;;;9.40;99.90;;;;;;4897754;29;20214;-74
2022/11/27 21:42:48;;;;;;;2.87;1.63;;;9.30;99.90;;;;;;4898056;29;20523;-74
2022/11/27 21:45:16;;;;;;;2.80;1.33;;;9.30;99.90;;;;;;4898182;29;20234;-74
2022/11/27 21:47:43;;;;;;;3.53;1.70;;;9.30;99.90;;;;;;4897887;29;20317;-73
2022/11/27 21:50:12;;;;;;;2.57;1.53;;;9.20;99.90;;;;;;4897743;29;20494;-74
2022/11/27 21:52:39;;;;;;;4.53;2.40;;;9.30;99.90;;;;;;4897544;29;20230;-74
2022/11/27 21:55:06;;;;;;;3.30;1.20;;;9.30;99.90;;;;;;4897866;29;20250;-74
2022/11/27 21:57:33;;;;;;;3.10;1.40;;;9.30;99.90;;;;;;4897584;29;20662;-75
2022/11/27 22:00:00;;;;;;;2.20;1.57;;;9.30;99.90;;;;;;4897789;29;20220;-75
2022/11/27 22:02:28;;;;;;;2.07;1.07;;;9.40;99.90;;;;;;4897840;29;20293;-74
2022/11/27 22:04:55;;;;;;;3.23;1.17;;;9.40;99.90;;;;;;4897739;29;20211;-73
2022/11/27 22:07:21;;;;;;;2.50;1.50;;;9.40;99.90;;;;;;4897924;29;20311;-73
2022/11/27 22:09:48;;;;;;;3.03;1.27;;;9.50;99.90;;;;;;4897608;29;20230;-74
2022/11/27 22:12:15;;;;;;;2.23;1.20;;;9.50;99.90;;;;;;4897501;29;20293;-75
2022/11/27 22:14:42;;;;;;;2.07;1.20;;;9.50;99.90;;;;;;4902363;29;20229;-74
2022/11/27 22:17:09;;;;;;;4.40;2.10;;;9.50;99.90;;;;;;4903907;29;20210;-75
2022/11/27 22:19:41;;;;;;;4.73;1.80;;;9.50;99.90;;;;;;4903750;29;20237;-74
2022/11/27 22:22:07;;;;;;;1.93;1.07;;;9.50;99.90;;;;;;4904408;29;20292;-73
2022/11/27 22:24:34;;;;;;;2.17;1.07;;;9.50;99.90;;;;;;4904360;29;20214;-74
2022/11/27 22:27:01;;;;;;;1.80;0.90;;;9.50;99.90;;;;;;4904046;29;20213;-73
2022/11/27 22:29:28;;;;;;;3.33;1.50;;;9.50;99.90;;;;;;4903887;29;20252;-73
2022/11/27 22:31:55;;;;;;;2.63;1.40;;;9.60;99.90;;;;;;4903374;29;20231;-73
2022/11/27 22:34:22;;;;;;;4.70;1.90;;;9.60;99.90;;;;;;4903846;29;20221;-74
2022/11/27 22:36:50;;;;;;;5.50;2.93;;;9.60;99.90;;;;;;4904189;29;20218;-73
2022/11/27 22:39:17;;;;;;;3.23;1.60;;;9.60;99.90;;;;;;4903904;29;20803;-73
2022/11/27 22:41:43;;;;;;;2.97;1.50;;;9.60;99.90;;;;;;4903996;29;20206;-75
2022/11/27 22:44:14;;;;;;;2.70;1.40;;;9.60;99.90;;;;;;4903660;29;20691;-76